sensor_id;sensor_type;location;lat;lon;timestamp;pressure;altitude;pressure_sealevel;temperature;humidity
13420;BME280;6781;58.440;15.470;2024-03-08T00:01:41;103806.69;;;-2.12;100.00
13420;BME280;6781;58.440;15.470;2024-03-08T00:04:10;103805.84;;;-2.12;100.00
13420;BME280;6781;58.440;15.470;2024-03-08T00:06:36;103819.53;;;-2.07;100.00
13420;BME280;6781;58.440;15.470;2024-03-08T00:09:06;103810.91;;;-2.12;100.00
13420;BME280;6781;58.440;15.470;2024-03-08T00:11:33;103811.00;;;-2.09;100.00
13420;BME280;6781;58.440;15.470;2024-03-08T00:14:00;103810.13;;;-2.10;100.00
13420;BME280;6781;58.440;15.470;2024-03-08T00:16:26;103808.19;;;-2.20;100.00
13420;BME280;6781;58.440;15.470;2024-03-08T00:18:54;103804.81;;;-2.19;100.00
13420;BME280;6781;58.440;15.470;2024-03-08T00:21:20;103811.72;;;-2.15;100.00
13420;BME280;6781;58.440;15.470;2024-03-08T00:23:47;103808.19;;;-2.20;100.00
13420;BME280;6781;58.440;15.470;2024-03-08T00:26:15;103804.00;;;-2.18;100.00
13420;BME280;6781;58.440;15.470;2024-03-08T00:28:42;103808.22;;;-2.18;100.00
13420;BME280;6781;58.440;15.470;2024-03-08T00:31:09;103799.72;;;-2.19;100.00
13420;BME280;6781;58.440;15.470;2024-03-08T00:33:36;103799.72;;;-2.19;100.00
13420;BME280;6781;58.440;15.470;2024-03-08T00:36:03;103791.13;;;-2.24;100.00
13420;BME280;6781;58.440;15.470;2024-03-08T00:38:29;103791.13;;;-2.24;100.00
13420;BME280;6781;58.440;15.470;2024-03-08T00:40:56;103797.94;;;-2.23;100.00
13420;BME280;6781;58.440;15.470;2024-03-08T00:43:25;103792.78;;;-2.26;100.00
13420;BME280;6781;58.440;15.470;2024-03-08T00:45:51;103781.66;;;-2.30;100.00
13420;BME280;6781;58.440;15.470;2024-03-08T00:48:18;103780.63;;;-2.36;100.00
13420;BME280;6781;58.440;15.470;2024-03-08T00:50:45;103777.34;;;-2.32;100.00
13420;BME280;6781;58.440;15.470;2024-03-08T00:53:13;103762.81;;;-2.38;100.00
13420;BME280;6781;58.440;15.470;2024-03-08T00:55:40;103769.66;;;-2.35;100.00
13420;BME280;6781;58.440;15.470;2024-03-08T00:58:06;103763.66;;;-2.37;100.00
13420;BME280;6781;58.440;15.470;2024-03-08T01:00:36;103773.91;;;-2.34;100.00
13420;BME280;6781;58.440;15.470;2024-03-08T01:03:04;103775.56;;;-2.36;100.00
13420;BME280;6781;58.440;15.470;2024-03-08T01:05:30;103777.28;;;-2.35;100.00
13420;BME280;6781;58.440;15.470;2024-03-08T01:07:57;103772.19;;;-2.35;100.00
13420;BME280;6781;58.440;15.470;2024-03-08T01:10:24;103772.25;;;-2.34;100.00
13420;BME280;6781;58.440;15.470;2024-03-08T01:12:51;103767.03;;;-2.38;100.00
13420;BME280;6781;58.440;15.470;2024-03-08T01:15:19;103770.47;;;-2.36;100.00
13420;BME280;6781;58.440;15.470;2024-03-08T01:17:48;103756.88;;;-2.38;100.00
13420;BME280;6781;58.440;15.470;2024-03-08T01:20:15;103768.75;;;-2.37;100.00
13420;BME280;6781;58.440;15.470;2024-03-08T01:22:43;103761.09;;;-2.39;100.00
13420;BME280;6781;58.440;15.470;2024-03-08T01:25:09;103756.78;;;-2.41;100.00
13420;BME280;6781;58.440;15.470;2024-03-08T01:27:36;103754.25;;;-2.41;100.00
13420;BME280;6781;58.440;15.470;2024-03-08T01:30:03;103751.59;;;-2.46;100.00
13420;BME280;6781;58.440;15.470;2024-03-08T01:32:30;103749.03;;;-2.46;100.00
13420;BME280;6781;58.440;15.470;2024-03-08T01:34:58;103738.84;;;-2.47;100.00
13420;BME280;6781;58.440;15.470;2024-03-08T01:37:25;103743.91;;;-2.47;100.00
13420;BME280;6781;58.440;15.470;2024-03-08T01:39:52;103735.41;;;-2.49;100.00
13420;BME280;6781;58.440;15.470;2024-03-08T01:42:18;103737.13;;;-2.48;100.00
13420;BME280;6781;58.440;15.470;2024-03-08T01:44:45;103737.94;;;-2.49;100.00
13420;BME280;6781;58.440;15.470;2024-03-08T01:47:12;103734.53;;;-2.50;100.00
13420;BME280;6781;58.440;15.470;2024-03-08T01:49:39;103730.19;;;-2.54;100.00
13420;BME280;6781;58.440;15.470;2024-03-08T01:52:07;103725.97;;;-2.53;100.00
13420;BME280;6781;58.440;15.470;2024-03-08T01:54:34;103723.41;;;-2.55;100.00
13420;BME280;6781;58.440;15.470;2024-03-08T01:57:01;103717.41;;;-2.57;100.00
13420;BME280;6781;58.440;15.470;2024-03-08T01:59:28;103731.78;;;-2.57;100.00
13420;BME280;6781;58.440;15.470;2024-03-08T02:01:55;103729.25;;;-2.57;100.00
13420;BME280;6781;58.440;15.470;2024-03-08T02:04:21;103719.88;;;-2.60;100.00
13420;BME280;6781;58.440;15.470;2024-03-08T02:06:49;103720.66;;;-2.63;100.00
13420;BME280;6781;58.440;15.470;2024-03-08T02:09:18;103713.84;;;-2.64;100.00
13420;BME280;6781;58.440;15.470;2024-03-08T02:11:45;103710.41;;;-2.66;100.00
13420;BME280;6781;58.440;15.470;2024-03-08T02:14:12;103709.59;;;-2.65;100.00
13420;BME280;6781;58.440;15.470;2024-03-08T02:16:39;103702.75;;;-2.67;100.00
13420;BME280;6781;58.440;15.470;2024-03-08T02:19:06;103706.06;;;-2.70;100.00
13420;BME280;6781;58.440;15.470;2024-03-08T02:21:36;103701.81;;;-2.71;100.00
13420;BME280;6781;58.440;15.470;2024-03-08T02:24:03;103703.53;;;-2.70;100.00
13420;BME280;6781;58.440;15.470;2024-03-08T02:26:30;103687.28;;;-2.76;100.00
13420;BME280;6781;58.440;15.470;2024-03-08T02:28:57;103689.84;;;-2.75;100.00
13420;BME280;6781;58.440;15.470;2024-03-08T02:31:23;103689.78;;;-2.78;100.00
13420;BME280;6781;58.440;15.470;2024-03-08T02:33:50;103694.94;;;-2.75;100.00
13420;BME280;6781;58.440;15.470;2024-03-08T02:36:16;103698.28;;;-2.76;100.00
13420;BME280;6781;58.440;15.470;2024-03-08T02:38:45;103700.00;;;-2.75;100.00
13420;BME280;6781;58.440;15.470;2024-03-08T02:41:12;103686.28;;;-2.81;100.00
13420;BME280;6781;58.440;15.470;2024-03-08T02:43:38;103682.88;;;-2.82;100.00
13420;BME280;6781;58.440;15.470;2024-03-08T02:46:05;103683.72;;;-2.83;100.00
13420;BME280;6781;58.440;15.470;2024-03-08T02:48:32;103686.28;;;-2.81;100.00
13420;BME280;6781;58.440;15.470;2024-03-08T02:50:58;103687.97;;;-2.82;100.00
13420;BME280;6781;58.440;15.470;2024-03-08T02:53:27;103682.81;;;-2.85;100.00
13420;BME280;6781;58.440;15.470;2024-03-08T02:55:55;103679.38;;;-2.87;100.00
13420;BME280;6781;58.440;15.470;2024-03-08T02:58:22;103677.66;;;-2.88;100.00
13420;BME280;6781;58.440;15.470;2024-03-08T03:00:48;103684.44;;;-2.87;100.00
13420;BME280;6781;58.440;15.470;2024-03-08T03:05:50;103680.16;;;-2.89;100.00
13420;BME280;6781;58.440;15.470;2024-03-08T03:08:20;103680.97;;;-2.90;100.00
13420;BME280;6781;58.440;15.470;2024-03-08T03:10:47;103675.03;;;-2.91;100.00
13420;BME280;6781;58.440;15.470;2024-03-08T03:13:15;103674.16;;;-2.91;100.00
13420;BME280;6781;58.440;15.470;2024-03-08T03:15:45;103674.13;;;-2.93;100.00
13420;BME280;6781;58.440;15.470;2024-03-08T03:18:12;103669.88;;;-2.94;100.00
13420;BME280;6781;58.440;15.470;2024-03-08T03:20:39;103674.94;;;-2.94;100.00
13420;BME280;6781;58.440;15.470;2024-03-08T03:23:07;103678.25;;;-2.97;100.00
13420;BME280;6781;58.440;15.470;2024-03-08T03:25:34;103677.41;;;-2.97;100.00
13420;BME280;6781;58.440;15.470;2024-03-08T03:28:01;103676.56;;;-2.96;100.00
13420;BME280;6781;58.440;15.470;2024-03-08T03:30:31;103673.13;;;-2.98;100.00
13420;BME280;6781;58.440;15.470;2024-03-08T03:32:59;103670.50;;;-3.01;100.00
13420;BME280;6781;58.440;15.470;2024-03-08T03:35:27;103674.69;;;-3.03;100.00
13420;BME280;6781;58.440;15.470;2024-03-08T03:37:54;103666.91;;;-3.09;100.00
13420;BME280;6781;58.440;15.470;2024-03-08T03:40:31;103672.88;;;-3.07;100.00
13420;BME280;6781;58.440;15.470;2024-03-08T03:42:58;103664.38;;;-3.09;100.00
13420;BME280;6781;58.440;15.470;2024-03-08T03:45:25;103656.72;;;-3.11;100.00
13420;BME280;6781;58.440;15.470;2024-03-08T03:47:53;103656.66;;;-3.12;100.00
13420;BME280;6781;58.440;15.470;2024-03-08T03:50:20;103654.94;;;-3.13;100.00
13420;BME280;6781;58.440;15.470;2024-03-08T03:52:47;103651.44;;;-3.18;100.00
13420;BME280;6781;58.440;15.470;2024-03-08T03:55:14;103654.88;;;-3.16;100.00
13420;BME280;6781;58.440;15.470;2024-03-08T03:57:41;103652.19;;;-3.21;100.00
13420;BME280;6781;58.440;15.470;2024-03-08T04:00:09;103653.91;;;-3.20;100.00
13420;BME280;6781;58.440;15.470;2024-03-08T04:02:36;103655.63;;;-3.19;100.00
13420;BME280;6781;58.440;15.470;2024-03-08T04:05:05;103653.06;;;-3.20;100.00
13420;BME280;6781;58.440;15.470;2024-03-08T04:07:32;103651.31;;;-3.23;100.00
13420;BME280;6781;58.440;15.470;2024-03-08T04:09:59;103648.72;;;-3.24;100.00
13420;BME280;6781;58.440;15.470;2024-03-08T04:12:26;103647.81;;;-3.27;100.00
13420;BME280;6781;58.440;15.470;2024-03-08T04:14:54;103647.81;;;-3.27;100.00
13420;BME280;6781;58.440;15.470;2024-03-08T04:17:21;103640.13;;;-3.30;100.00
13420;BME280;6781;58.440;15.470;2024-03-08T04:19:49;103643.47;;;-3.31;100.00
13420;BME280;6781;58.440;15.470;2024-03-08T04:22:17;103637.50;;;-3.33;100.00
13420;BME280;6781;58.440;15.470;2024-03-08T04:24:44;103640.06;;;-3.31;100.00
13420;BME280;6781;58.440;15.470;2024-03-08T04:27:11;103640.84;;;-3.34;100.00
13420;BME280;6781;58.440;15.470;2024-03-08T04:29:37;103635.72;;;-3.35;100.00
13420;BME280;6781;58.440;15.470;2024-03-08T04:32:04;103629.75;;;-3.37;100.00
13420;BME280;6781;58.440;15.470;2024-03-08T04:34:31;103632.25;;;-3.39;100.00
13420;BME280;6781;58.440;15.470;2024-03-08T04:36:59;103630.53;;;-3.40;100.00
13420;BME280;6781;58.440;15.470;2024-03-08T04:39:27;103625.38;;;-3.43;100.00
13420;BME280;6781;58.440;15.470;2024-03-08T04:41:54;103621.88;;;-3.46;100.00
13420;BME280;6781;58.440;15.470;2024-03-08T04:44:22;103625.28;;;-3.46;100.00
13420;BME280;6781;58.440;15.470;2024-03-08T04:46:49;103618.53;;;-3.47;100.00
13420;BME280;6781;58.440;15.470;2024-03-08T04:49:16;103620.16;;;-3.49;100.00
13420;BME280;6781;58.440;15.470;2024-03-08T04:51:43;103615.00;;;-3.52;100.00
13420;BME280;6781;58.440;15.470;2024-03-08T04:54:11;103608.28;;;-3.50;100.00
13420;BME280;6781;58.440;15.470;2024-03-08T04:56:39;103607.38;;;-3.52;100.00
13420;BME280;6781;58.440;15.470;2024-03-08T04:59:06;103603.03;;;-3.56;100.00
13420;BME280;6781;58.440;15.470;2024-03-08T05:01:33;103599.59;;;-3.58;100.00
13420;BME280;6781;58.440;15.470;2024-03-08T05:04:01;103597.88;;;-3.59;100.00
13420;BME280;6781;58.440;15.470;2024-03-08T05:06:28;103596.16;;;-3.60;100.00
13420;BME280;6781;58.440;15.470;2024-03-08T05:08:55;103593.63;;;-3.60;100.00
13420;BME280;6781;58.440;15.470;2024-03-08T05:11:22;103591.09;;;-3.60;100.00
13420;BME280;6781;58.440;15.470;2024-03-08T05:13:50;103586.78;;;-3.63;100.00
13420;BME280;6781;58.440;15.470;2024-03-08T05:16:17;103583.31;;;-3.66;100.00
13420;BME280;6781;58.440;15.470;2024-03-08T05:18:43;103586.72;;;-3.66;100.00
13420;BME280;6781;58.440;15.470;2024-03-08T05:21:12;103579.06;;;-3.67;100.00
13420;BME280;6781;58.440;15.470;2024-03-08T05:23:38;103589.19;;;-3.67;100.00
13420;BME280;6781;58.440;15.470;2024-03-08T05:26:05;103588.34;;;-3.68;100.00
13420;BME280;6781;58.440;15.470;2024-03-08T05:28:32;103577.25;;;-3.71;100.00
13420;BME280;6781;58.440;15.470;2024-03-08T05:31:00;103575.53;;;-3.72;100.00
13420;BME280;6781;58.440;15.470;2024-03-08T05:33:27;103579.69;;;-3.74;100.00
13420;BME280;6781;58.440;15.470;2024-03-08T05:35:53;103579.69;;;-3.74;100.00
13420;BME280;6781;58.440;15.470;2024-03-08T05:38:21;103572.91;;;-3.75;100.00
13420;BME280;6781;58.440;15.470;2024-03-08T05:40:48;103580.47;;;-3.77;100.00
13420;BME280;6781;58.440;15.470;2024-03-08T05:43:16;103575.31;;;-3.80;100.00
13420;BME280;6781;58.440;15.470;2024-03-08T05:45:44;103566.84;;;-3.80;100.00
13420;BME280;6781;58.440;15.470;2024-03-08T05:48:13;103571.16;;;-3.78;100.00
13420;BME280;6781;58.440;15.470;2024-03-08T05:50:39;103571.91;;;-3.80;100.00
13420;BME280;6781;58.440;15.470;2024-03-08T05:53:06;103569.38;;;-3.80;100.00
13420;BME280;6781;58.440;15.470;2024-03-08T05:55:33;103561.50;;;-3.89;100.00
13420;BME280;6781;58.440;15.470;2024-03-08T05:58:00;103570.09;;;-3.84;100.00
13420;BME280;6781;58.440;15.470;2024-03-08T06:00:27;103576.03;;;-3.84;100.00
13420;BME280;6781;58.440;15.470;2024-03-08T06:02:56;103571.06;;;-3.81;100.00
13420;BME280;6781;58.440;15.470;2024-03-08T06:05:25;103581.25;;;-3.79;100.00
13420;BME280;6781;58.440;15.470;2024-03-08T06:07:52;103585.50;;;-3.78;100.00
13420;BME280;6781;58.440;15.470;2024-03-08T06:10:19;103578.72;;;-3.79;100.00
13420;BME280;6781;58.440;15.470;2024-03-08T06:12:45;103578.72;;;-3.79;100.00
13420;BME280;6781;58.440;15.470;2024-03-08T06:15:12;103577.06;;;-3.77;100.00
13420;BME280;6781;58.440;15.470;2024-03-08T06:17:41;103579.66;;;-3.76;100.00
13420;BME280;6781;58.440;15.470;2024-03-08T06:20:08;103578.78;;;-3.76;100.00
13420;BME280;6781;58.440;15.470;2024-03-08T06:22:39;103577.06;;;-3.77;100.00
13420;BME280;6781;58.440;15.470;2024-03-08T06:25:07;103579.66;;;-3.76;100.00
13420;BME280;6781;58.440;15.470;2024-03-08T06:27:36;103573.72;;;-3.76;100.00
13420;BME280;6781;58.440;15.470;2024-03-08T06:30:03;103580.50;;;-3.75;100.00
13420;BME280;6781;58.440;15.470;2024-03-08T06:32:30;103572.91;;;-3.75;100.00
13420;BME280;6781;58.440;15.470;2024-03-08T06:35:04;103576.31;;;-3.75;100.00
13420;BME280;6781;58.440;15.470;2024-03-08T06:37:35;103579.69;;;-3.74;100.00
13420;BME280;6781;58.440;15.470;2024-03-08T06:40:03;103579.75;;;-3.73;100.00
13420;BME280;6781;58.440;15.470;2024-03-08T06:42:30;103574.66;;;-3.73;100.00
13420;BME280;6781;58.440;15.470;2024-03-08T06:45:00;103584.84;;;-3.71;100.00
13420;BME280;6781;58.440;15.470;2024-03-08T06:47:30;103584.03;;;-3.70;100.00
13420;BME280;6781;58.440;15.470;2024-03-08T06:49:57;103581.56;;;-3.69;100.00
13420;BME280;6781;58.440;15.470;2024-03-08T06:52:24;103581.50;;;-3.70;100.00
13420;BME280;6781;58.440;15.470;2024-03-08T06:54:50;103581.59;;;-3.67;100.00
13420;BME280;6781;58.440;15.470;2024-03-08T06:57:19;103581.59;;;-3.67;100.00
13420;BME280;6781;58.440;15.470;2024-03-08T06:59:47;103590.91;;;-3.66;100.00
13420;BME280;6781;58.440;15.470;2024-03-08T07:02:13;103589.28;;;-3.64;100.00
13420;BME280;6781;58.440;15.470;2024-03-08T07:04:40;103593.59;;;-3.62;100.00
13420;BME280;6781;58.440;15.470;2024-03-08T07:07:07;103586.03;;;-3.60;100.00
13420;BME280;6781;58.440;15.470;2024-03-08T07:09:34;103590.31;;;-3.57;100.00
13420;BME280;6781;58.440;15.470;2024-03-08T07:12:01;103587.75;;;-3.59;100.00
13420;BME280;6781;58.440;15.470;2024-03-08T07:14:29;103592.91;;;-3.56;100.00
13420;BME280;6781;58.440;15.470;2024-03-08T07:16:56;103593.84;;;-3.52;100.00
13420;BME280;6781;58.440;15.470;2024-03-08T07:19:23;103582.94;;;-3.50;100.00
13420;BME280;6781;58.440;15.470;2024-03-08T07:21:49;103597.38;;;-3.46;100.00
13420;BME280;6781;58.440;15.470;2024-03-08T07:24:16;103595.72;;;-3.45;100.00
13420;BME280;6781;58.440;15.470;2024-03-08T07:27:03;103598.28;;;-3.44;100.00
13420;BME280;6781;58.440;15.470;2024-03-08T07:29:31;103603.63;;;-3.35;100.00
13420;BME280;6781;58.440;15.470;2024-03-08T07:31:58;103625.06;;;-3.23;100.00
13420;BME280;6781;58.440;15.470;2024-03-08T07:34:37;103646.44;;;-3.15;100.00
13420;BME280;6781;58.440;15.470;2024-03-08T07:37:05;103669.56;;;-3.05;100.00
13420;BME280;6781;58.440;15.470;2024-03-08T07:39:36;103682.47;;;-2.97;100.00
13420;BME280;6781;58.440;15.470;2024-03-08T07:42:03;103715.00;;;-2.84;100.00
13420;BME280;6781;58.440;15.470;2024-03-08T07:44:29;103727.78;;;-2.81;100.00
13420;BME280;6781;58.440;15.470;2024-03-08T07:46:58;103750.34;;;-2.60;100.00
13420;BME280;6781;58.440;15.470;2024-03-08T07:49:25;103762.97;;;-2.32;100.00
13420;BME280;6781;58.440;15.470;2024-03-08T07:51:51;103767.50;;;-2.20;100.00
13420;BME280;6781;58.440;15.470;2024-03-08T07:54:18;103764.22;;;-2.16;100.00
13420;BME280;6781;58.440;15.470;2024-03-08T07:56:45;103762.50;;;-2.17;100.00
13420;BME280;6781;58.440;15.470;2024-03-08T07:59:12;103770.56;;;-2.00;100.00
13420;BME280;6781;58.440;15.470;2024-03-08T08:01:38;103762.09;;;-1.99;100.00
13420;BME280;6781;58.440;15.470;2024-03-08T08:04:07;103754.66;;;-1.91;100.00
13420;BME280;6781;58.440;15.470;2024-03-08T08:06:37;103761.63;;;-1.84;100.00
13420;BME280;6781;58.440;15.470;2024-03-08T08:09:06;103772.34;;;-1.60;100.00
13420;BME280;6781;58.440;15.470;2024-03-08T08:11:35;103769.47;;;-1.38;100.00
13420;BME280;6781;58.440;15.470;2024-03-08T08:14:01;103760.53;;;-1.19;100.00
13420;BME280;6781;58.440;15.470;2024-03-08T08:16:28;103758.34;;;-1.02;100.00
13420;BME280;6781;58.440;15.470;2024-03-08T08:18:55;103744.19;;;-0.89;100.00
13420;BME280;6781;58.440;15.470;2024-03-08T08:21:23;103729.56;;;-0.98;100.00
13420;BME280;6781;58.440;15.470;2024-03-08T08:23:51;103722.03;;;-0.93;100.00
13420;BME280;6781;58.440;15.470;2024-03-08T08:26:18;103715.56;;;-0.76;100.00
13420;BME280;6781;58.440;15.470;2024-03-08T08:28:46;103706.13;;;-0.82;100.00
13420;BME280;6781;58.440;15.470;2024-03-08T08:31:13;103688.53;;;-0.68;100.00
13420;BME280;6781;58.440;15.470;2024-03-08T08:33:40;103689.28;;;-0.74;100.00
13420;BME280;6781;58.440;15.470;2024-03-08T08:36:07;103682.69;;;-0.62;100.00
13420;BME280;6781;58.440;15.470;2024-03-08T08:38:36;103685.50;;;-0.47;100.00
13420;BME280;6781;58.440;15.470;2024-03-08T08:41:03;103680.56;;;-0.38;100.00
13420;BME280;6781;58.440;15.470;2024-03-08T08:43:31;103661.06;;;-0.36;100.00
13420;BME280;6781;58.440;15.470;2024-03-08T08:45:58;103655.31;;;-0.23;100.00
13420;BME280;6781;58.440;15.470;2024-03-08T08:48:26;103635.84;;;-0.18;100.00
13420;BME280;6781;58.440;15.470;2024-03-08T08:50:54;103624.06;;;-0.10;100.00
13420;BME280;6781;58.440;15.470;2024-03-08T08:53:21;103601.09;;;-0.11;100.00
13420;BME280;6781;58.440;15.470;2024-03-08T08:55:49;103591.78;;;-0.08;100.00
13420;BME280;6781;58.440;15.470;2024-03-08T08:58:16;103573.22;;;0.06;100.00
13420;BME280;6781;58.440;15.470;2024-03-08T09:00:43;103564.03;;;0.18;100.00
13420;BME280;6781;58.440;15.470;2024-03-08T09:03:10;103544.44;;;0.16;100.00
13420;BME280;6781;58.440;15.470;2024-03-08T09:05:37;103535.19;;;0.24;100.00
13420;BME280;6781;58.440;15.470;2024-03-08T09:08:04;103511.44;;;0.29;100.00
13420;BME280;6781;58.440;15.470;2024-03-08T09:10:31;103488.41;;;0.25;100.00
13420;BME280;6781;58.440;15.470;2024-03-08T09:13:00;103486.00;;;0.37;100.00
13420;BME280;6781;58.440;15.470;2024-03-08T09:15:29;103462.22;;;0.41;100.00
13420;BME280;6781;58.440;15.470;2024-03-08T09:17:56;103446.16;;;0.51;100.00
13420;BME280;6781;58.440;15.470;2024-03-08T09:20:24;103435.97;;;0.54;100.00
13420;BME280;6781;58.440;15.470;2024-03-08T09:22:51;103412.06;;;0.46;100.00
13420;BME280;6781;58.440;15.470;2024-03-08T09:25:18;103388.25;;;0.49;100.00
13420;BME280;6781;58.440;15.470;2024-03-08T09:27:44;103375.63;;;0.67;100.00
13420;BME280;6781;58.440;15.470;2024-03-08T09:30:13;103352.66;;;0.69;100.00
13420;BME280;6781;58.440;15.470;2024-03-08T09:32:40;103334.00;;;0.79;100.00
13420;BME280;6781;58.440;15.470;2024-03-08T09:35:08;103319.56;;;0.82;100.00
13420;BME280;6781;58.440;15.470;2024-03-08T09:37:36;103301.72;;;0.93;100.00
13420;BME280;6781;58.440;15.470;2024-03-08T09:40:03;103298.41;;;1.06;100.00
13420;BME280;6781;58.440;15.470;2024-03-08T09:42:34;103269.44;;;1.10;100.00
13420;BME280;6781;58.440;15.470;2024-03-08T09:45:03;103254.13;;;1.16;100.00
13420;BME280;6781;58.440;15.470;2024-03-08T09:47:32;103238.84;;;1.22;100.00
13420;BME280;6781;58.440;15.470;2024-03-08T09:50:04;103218.38;;;1.16;100.00
13420;BME280;6781;58.440;15.470;2024-03-08T09:52:34;103207.31;;;1.33;100.00
13420;BME280;6781;58.440;15.470;2024-03-08T09:55:01;103191.13;;;1.24;100.00
13420;BME280;6781;58.440;15.470;2024-03-08T09:57:27;103178.38;;;1.37;100.00
13420;BME280;6781;58.440;15.470;2024-03-08T09:59:54;103165.59;;;1.34;100.00
13420;BME280;6781;58.440;15.470;2024-03-08T10:02:21;103155.38;;;1.43;100.00
13420;BME280;6781;58.440;15.470;2024-03-08T10:04:50;103134.91;;;1.53;100.00
13420;BME280;6781;58.440;15.470;2024-03-08T10:07:18;103117.00;;;1.49;100.00
13420;BME280;6781;58.440;15.470;2024-03-08T10:09:45;103088.03;;;1.53;100.00
13420;BME280;6781;58.440;15.470;2024-03-08T10:12:15;103063.31;;;1.55;100.00
13420;BME280;6781;58.440;15.470;2024-03-08T10:14:42;103051.38;;;1.60;100.00
13420;BME280;6781;58.440;15.470;2024-03-08T10:17:09;103042.78;;;1.75;100.00
13420;BME280;6781;58.440;15.470;2024-03-08T10:19:36;103019.75;;;1.84;100.00
13420;BME280;6781;58.440;15.470;2024-03-08T10:22:04;103007.75;;;1.96;100.00
13420;BME280;6781;58.440;15.470;2024-03-08T10:24:32;102978.72;;;2.05;100.00
13420;BME280;6781;58.440;15.470;2024-03-08T10:27:00;102957.38;;;2.08;100.00
13420;BME280;6781;58.440;15.470;2024-03-08T10:29:29;102928.25;;;2.27;100.00
13420;BME280;6781;58.440;15.470;2024-03-08T10:31:56;102892.41;;;2.30;100.00
13420;BME280;6781;58.440;15.470;2024-03-08T10:34:23;102871.94;;;2.25;100.00
13420;BME280;6781;58.440;15.470;2024-03-08T10:36:50;102852.28;;;2.29;100.00
13420;BME280;6781;58.440;15.470;2024-03-08T10:39:20;102808.66;;;2.41;100.00
13420;BME280;6781;58.440;15.470;2024-03-08T10:41:49;102791.56;;;2.46;100.00
13420;BME280;6781;58.440;15.470;2024-03-08T10:44:21;102761.56;;;2.56;100.00
13420;BME280;6781;58.440;15.470;2024-03-08T10:46:56;102724.72;;;2.71;100.00
13420;BME280;6781;58.440;15.470;2024-03-08T10:49:30;102677.66;;;2.76;100.00
13420;BME280;6781;58.440;15.470;2024-03-08T10:51:59;102640.97;;;2.76;100.00
13420;BME280;6781;58.440;15.470;2024-03-08T10:54:29;102617.78;;;2.83;100.00
13420;BME280;6781;58.440;15.470;2024-03-08T10:56:57;102575.88;;;2.89;100.00
13420;BME280;6781;58.440;15.470;2024-03-08T10:59:26;102536.47;;;2.96;100.00
13420;BME280;6781;58.440;15.470;2024-03-08T11:01:57;102501.47;;;2.95;100.00
13420;BME280;6781;58.440;15.470;2024-03-08T11:04:23;102479.81;;;3.13;100.00
13420;BME280;6781;58.440;15.470;2024-03-08T11:06:50;102442.91;;;3.21;100.00
13420;BME280;6781;58.440;15.470;2024-03-08T11:09:30;102393.31;;;3.24;100.00
13420;BME280;6781;58.440;15.470;2024-03-08T11:14:43;102329.41;;;3.13;100.00
13420;BME280;6781;58.440;15.470;2024-03-08T11:17:14;102309.03;;;3.07;100.00
13420;BME280;6781;58.440;15.470;2024-03-08T11:19:45;102302.09;;;3.12;100.00
13420;BME280;6781;58.440;15.470;2024-03-08T11:22:20;102280.88;;;3.06;100.00
13420;BME280;6781;58.440;15.470;2024-03-08T11:24:50;102263.78;;;3.06;100.00
13420;BME280;6781;58.440;15.470;2024-03-08T11:27:17;102255.97;;;3.12;100.00
13420;BME280;6781;58.440;15.470;2024-03-08T11:29:45;102248.16;;;3.18;100.00
13420;BME280;6781;58.440;15.470;2024-03-08T11:32:27;102220.72;;;3.22;100.00
13420;BME280;6781;58.440;15.470;2024-03-08T11:34:54;102195.88;;;3.25;100.00
13420;BME280;6781;58.440;15.470;2024-03-08T11:37:21;102176.91;;;3.33;100.00
13420;BME280;6781;58.440;15.470;2024-03-08T11:39:50;102160.56;;;3.37;100.00
13420;BME280;6781;58.440;15.470;2024-03-08T11:42:17;102142.47;;;3.43;100.00
13420;BME280;6781;58.440;15.470;2024-03-08T11:44:44;102119.41;;;3.43;100.00
13420;BME280;6781;58.440;15.470;2024-03-08T11:47:11;102104.63;;;3.51;100.00
13420;BME280;6781;58.440;15.470;2024-03-08T11:49:38;102083.88;;;3.60;100.00
13420;BME280;6781;58.440;15.470;2024-03-08T11:52:10;102059.25;;;3.85;100.00
13420;BME280;6781;58.440;15.470;2024-03-08T11:54:38;102015.09;;;3.74;100.00
13420;BME280;6781;58.440;15.470;2024-03-08T11:57:07;101997.06;;;3.77;100.00
13420;BME280;6781;58.440;15.470;2024-03-08T11:59:35;101965.03;;;3.90;100.00
13420;BME280;6781;58.440;15.470;2024-03-08T12:02:02;101934.94;;;3.96;100.00
13420;BME280;6781;58.440;15.470;2024-03-08T12:04:29;101921.38;;;3.92;100.00
13420;BME280;6781;58.440;15.470;2024-03-08T12:06:59;101909.78;;;4.07;100.00
13420;BME280;6781;58.440;15.470;2024-03-08T12:09:26;101889.78;;;4.18;100.00
13420;BME280;6781;58.440;15.470;2024-03-08T12:11:53;101875.84;;;4.25;100.00
13420;BME280;6781;58.440;15.470;2024-03-08T12:14:21;101845.63;;;4.33;100.00
13420;BME280;6781;58.440;15.470;2024-03-08T12:16:48;101816.59;;;4.31;100.00
13420;BME280;6781;58.440;15.470;2024-03-08T12:19:16;101821.16;;;4.23;100.00
13420;BME280;6781;58.440;15.470;2024-03-08T12:21:43;101791.72;;;4.33;100.00
13420;BME280;6781;58.440;15.470;2024-03-08T12:24:14;101760.06;;;4.33;100.00
13420;BME280;6781;58.440;15.470;2024-03-08T12:26:41;101748.09;;;4.32;100.00
13420;BME280;6781;58.440;15.470;2024-03-08T12:29:27;101723.84;;;4.40;100.00
13420;BME280;6781;58.440;15.470;2024-03-08T12:31:54;101694.16;;;4.56;100.00
13420;BME280;6781;58.440;15.470;2024-03-08T12:34:20;101675.78;;;4.67;100.00
13420;BME280;6781;58.440;15.470;2024-03-08T12:36:47;101664.81;;;4.85;100.00
13420;BME280;6781;58.440;15.470;2024-03-08T12:39:15;101642.16;;;4.95;100.00
13420;BME280;6781;58.440;15.470;2024-03-08T12:41:43;101595.84;;;4.97;100.00
13420;BME280;6781;58.440;15.470;2024-03-08T12:44:10;101553.63;;;5.02;100.00
13420;BME280;6781;58.440;15.470;2024-03-08T12:46:39;101537.63;;;4.96;100.00
13420;BME280;6781;58.440;15.470;2024-03-08T12:49:09;101535.22;;;5.13;100.00
13420;BME280;6781;58.440;15.470;2024-03-08T12:51:37;101502.22;;;5.22;100.00